sensor_id;sensor_type;location;lat;lon;timestamp;temperature;humidity
981;DHT22;479;53.514;9.994;2022-09-28T00:01:34;9.10;99.90
981;DHT22;479;53.514;9.994;2022-09-28T00:04:01;9.10;99.90
981;DHT22;479;53.514;9.994;2022-09-28T00:06:30;9.20;99.90
981;DHT22;479;53.514;9.994;2022-09-28T00:08:57;9.20;99.90
981;DHT22;479;53.514;9.994;2022-09-28T00:11:26;9.20;99.90
981;DHT22;479;53.514;9.994;2022-09-28T00:13:55;9.10;99.90
981;DHT22;479;53.514;9.994;2022-09-28T00:16:25;9.10;99.90
981;DHT22;479;53.514;9.994;2022-09-28T00:18:52;9.10;99.90
981;DHT22;479;53.514;9.994;2022-09-28T00:21:21;9.20;99.90
981;DHT22;479;53.514;9.994;2022-09-28T00:23:52;9.20;99.90
981;DHT22;479;53.514;9.994;2022-09-28T00:26:41;9.20;99.90
981;DHT22;479;53.514;9.994;2022-09-28T00:29:15;9.20;99.90
981;DHT22;479;53.514;9.994;2022-09-28T00:31:42;9.20;99.90
981;DHT22;479;53.514;9.994;2022-09-28T00:34:09;9.10;99.90
981;DHT22;479;53.514;9.994;2022-09-28T00:36:42;9.10;99.90
981;DHT22;479;53.514;9.994;2022-09-28T00:39:13;9.10;99.90
981;DHT22;479;53.514;9.994;2022-09-28T00:41:41;9.10;99.90
981;DHT22;479;53.514;9.994;2022-09-28T00:44:36;9.10;99.90
981;DHT22;479;53.514;9.994;2022-09-28T00:50:21;9.00;99.90
981;DHT22;479;53.514;9.994;2022-09-28T00:52:59;9.00;99.90
981;DHT22;479;53.514;9.994;2022-09-28T00:55:33;8.90;99.90
981;DHT22;479;53.514;9.994;2022-09-28T00:58:04;9.00;99.90
981;DHT22;479;53.514;9.994;2022-09-28T01:00:31;9.00;99.90
981;DHT22;479;53.514;9.994;2022-09-28T01:03:00;8.90;99.90
981;DHT22;479;53.514;9.994;2022-09-28T01:05:30;8.90;99.90
981;DHT22;479;53.514;9.994;2022-09-28T01:08:00;8.90;99.90
981;DHT22;479;53.514;9.994;2022-09-28T01:10:30;8.80;99.90
981;DHT22;479;53.514;9.994;2022-09-28T01:12:57;8.80;99.90
981;DHT22;479;53.514;9.994;2022-09-28T01:15:27;8.80;99.90
981;DHT22;479;53.514;9.994;2022-09-28T01:18:00;8.80;99.90
981;DHT22;479;53.514;9.994;2022-09-28T01:20:55;8.70;99.90
981;DHT22;479;53.514;9.994;2022-09-28T01:23:53;8.70;99.90
981;DHT22;479;53.514;9.994;2022-09-28T01:26:46;8.60;99.90
981;DHT22;479;53.514;9.994;2022-09-28T01:29:24;8.60;99.90
981;DHT22;479;53.514;9.994;2022-09-28T01:32:02;8.60;99.90
981;DHT22;479;53.514;9.994;2022-09-28T01:34:37;8.60;99.90
981;DHT22;479;53.514;9.994;2022-09-28T01:37:08;8.50;99.90
981;DHT22;479;53.514;9.994;2022-09-28T01:39:39;8.50;99.90
981;DHT22;479;53.514;9.994;2022-09-28T01:42:13;8.50;99.90
981;DHT22;479;53.514;9.994;2022-09-28T01:44:47;8.40;99.90
981;DHT22;479;53.514;9.994;2022-09-28T01:47:19;8.40;99.90
981;DHT22;479;53.514;9.994;2022-09-28T01:49:51;8.40;99.90
981;DHT22;479;53.514;9.994;2022-09-28T01:52:23;8.40;99.90
981;DHT22;479;53.514;9.994;2022-09-28T01:54:55;8.30;99.90
981;DHT22;479;53.514;9.994;2022-09-28T01:57:31;8.30;99.90
981;DHT22;479;53.514;9.994;2022-09-28T02:00:05;8.30;99.90
981;DHT22;479;53.514;9.994;2022-09-28T02:02:46;8.30;99.90
981;DHT22;479;53.514;9.994;2022-09-28T02:05:23;8.30;99.90
981;DHT22;479;53.514;9.994;2022-09-28T02:07:57;8.30;99.90
981;DHT22;479;53.514;9.994;2022-09-28T02:10:30;8.30;99.90
981;DHT22;479;53.514;9.994;2022-09-28T02:13:02;8.20;99.90
981;DHT22;479;53.514;9.994;2022-09-28T02:15:36;8.20;99.90
981;DHT22;479;53.514;9.994;2022-09-28T02:18:06;8.20;99.90
981;DHT22;479;53.514;9.994;2022-09-28T02:20:39;8.30;99.90
981;DHT22;479;53.514;9.994;2022-09-28T02:23:07;8.30;99.90
981;DHT22;479;53.514;9.994;2022-09-28T02:25:39;8.40;99.90
981;DHT22;479;53.514;9.994;2022-09-28T02:28:11;8.40;99.90
981;DHT22;479;53.514;9.994;2022-09-28T02:30:40;8.50;99.90
981;DHT22;479;53.514;9.994;2022-09-28T02:33:11;8.40;99.90
981;DHT22;479;53.514;9.994;2022-09-28T02:35:40;8.40;99.90
981;DHT22;479;53.514;9.994;2022-09-28T02:38:09;8.30;99.90
981;DHT22;479;53.514;9.994;2022-09-28T02:40:36;8.20;99.90
981;DHT22;479;53.514;9.994;2022-09-28T02:43:12;8.10;99.90
981;DHT22;479;53.514;9.994;2022-09-28T02:45:49;8.00;99.90
981;DHT22;479;53.514;9.994;2022-09-28T02:48:27;7.90;99.90
981;DHT22;479;53.514;9.994;2022-09-28T02:51:02;7.90;99.90
981;DHT22;479;53.514;9.994;2022-09-28T02:53:44;7.90;99.90
981;DHT22;479;53.514;9.994;2022-09-28T02:56:24;7.80;99.90
981;DHT22;479;53.514;9.994;2022-09-28T02:59:01;7.80;99.90
981;DHT22;479;53.514;9.994;2022-09-28T03:01:36;7.90;99.90
981;DHT22;479;53.514;9.994;2022-09-28T03:04:12;7.90;99.90
981;DHT22;479;53.514;9.994;2022-09-28T03:06:45;7.70;99.90
981;DHT22;479;53.514;9.994;2022-09-28T03:09:19;7.70;99.90
981;DHT22;479;53.514;9.994;2022-09-28T03:11:50;7.70;99.90
981;DHT22;479;53.514;9.994;2022-09-28T03:14:19;7.70;99.90
981;DHT22;479;53.514;9.994;2022-09-28T03:16:51;7.60;99.90
981;DHT22;479;53.514;9.994;2022-09-28T03:19:22;7.60;99.90
981;DHT22;479;53.514;9.994;2022-09-28T03:21:50;7.50;99.90
981;DHT22;479;53.514;9.994;2022-09-28T03:24:17;7.50;99.90
981;DHT22;479;53.514;9.994;2022-09-28T03:26:44;7.50;99.90
981;DHT22;479;53.514;9.994;2022-09-28T03:29:12;7.40;99.90
981;DHT22;479;53.514;9.994;2022-09-28T03:31:42;7.50;99.90
981;DHT22;479;53.514;9.994;2022-09-28T03:34:09;7.50;99.90
981;DHT22;479;53.514;9.994;2022-09-28T03:36:36;7.50;99.90
981;DHT22;479;53.514;9.994;2022-09-28T03:39:03;7.50;99.90
981;DHT22;479;53.514;9.994;2022-09-28T03:41:30;7.40;99.90
981;DHT22;479;53.514;9.994;2022-09-28T03:43:57;7.40;99.90
981;DHT22;479;53.514;9.994;2022-09-28T03:46:26;7.30;99.90
981;DHT22;479;53.514;9.994;2022-09-28T03:48:58;7.30;99.90
981;DHT22;479;53.514;9.994;2022-09-28T03:51:25;7.30;99.90
981;DHT22;479;53.514;9.994;2022-09-28T03:53:52;7.30;99.90
981;DHT22;479;53.514;9.994;2022-09-28T03:56:20;7.40;99.90
981;DHT22;479;53.514;9.994;2022-09-28T03:58:47;7.40;99.90
981;DHT22;479;53.514;9.994;2022-09-28T04:01:15;7.40;99.90
981;DHT22;479;53.514;9.994;2022-09-28T04:03:43;7.40;99.90
981;DHT22;479;53.514;9.994;2022-09-28T04:06:13;7.40;99.90
981;DHT22;479;53.514;9.994;2022-09-28T04:08:40;7.40;99.90
981;DHT22;479;53.514;9.994;2022-09-28T04:11:07;7.50;99.90
981;DHT22;479;53.514;9.994;2022-09-28T04:13:34;7.50;99.90
981;DHT22;479;53.514;9.994;2022-09-28T04:16:02;7.50;99.90
981;DHT22;479;53.514;9.994;2022-09-28T04:18:32;7.50;99.90
981;DHT22;479;53.514;9.994;2022-09-28T04:21:19;7.40;99.90
981;DHT22;479;53.514;9.994;2022-09-28T04:23:55;7.40;99.90
981;DHT22;479;53.514;9.994;2022-09-28T04:26:24;7.50;99.90
981;DHT22;479;53.514;9.994;2022-09-28T04:28:51;7.50;99.90
981;DHT22;479;53.514;9.994;2022-09-28T04:31:37;7.40;99.90
981;DHT22;479;53.514;9.994;2022-09-28T04:34:04;7.50;99.90
981;DHT22;479;53.514;9.994;2022-09-28T04:36:33;7.50;99.90
981;DHT22;479;53.514;9.994;2022-09-28T04:39:00;7.50;99.90
981;DHT22;479;53.514;9.994;2022-09-28T04:41:28;7.50;99.90
981;DHT22;479;53.514;9.994;2022-09-28T04:43:55;7.60;99.90
981;DHT22;479;53.514;9.994;2022-09-28T04:46:24;7.60;99.90
981;DHT22;479;53.514;9.994;2022-09-28T04:49:03;7.60;99.90
981;DHT22;479;53.514;9.994;2022-09-28T04:51:41;7.60;99.90
981;DHT22;479;53.514;9.994;2022-09-28T04:54:08;7.60;99.90
981;DHT22;479;53.514;9.994;2022-09-28T04:56:35;7.50;99.90
981;DHT22;479;53.514;9.994;2022-09-28T04:59:02;7.50;99.90
981;DHT22;479;53.514;9.994;2022-09-28T05:01:29;7.50;99.90
981;DHT22;479;53.514;9.994;2022-09-28T05:04:20;7.50;99.90
981;DHT22;479;53.514;9.994;2022-09-28T05:06:57;7.40;99.90
981;DHT22;479;53.514;9.994;2022-09-28T05:09:24;7.30;99.90
981;DHT22;479;53.514;9.994;2022-09-28T05:11:51;7.40;99.90
981;DHT22;479;53.514;9.994;2022-09-28T05:14:20;7.40;99.90
981;DHT22;479;53.514;9.994;2022-09-28T05:16:47;7.50;99.90
981;DHT22;479;53.514;9.994;2022-09-28T05:19:33;7.50;99.90
981;DHT22;479;53.514;9.994;2022-09-28T05:22:03;7.50;99.90
981;DHT22;479;53.514;9.994;2022-09-28T05:24:37;7.50;99.90
981;DHT22;479;53.514;9.994;2022-09-28T05:27:04;7.50;99.90
981;DHT22;479;53.514;9.994;2022-09-28T05:29:31;7.50;99.90
981;DHT22;479;53.514;9.994;2022-09-28T05:32:16;7.50;99.90
981;DHT22;479;53.514;9.994;2022-09-28T05:34:54;7.50;99.90
981;DHT22;479;53.514;9.994;2022-09-28T05:37:27;7.50;99.90
981;DHT22;479;53.514;9.994;2022-09-28T05:39:53;7.40;99.90
981;DHT22;479;53.514;9.994;2022-09-28T05:42:20;7.50;99.90
981;DHT22;479;53.514;9.994;2022-09-28T05:44:47;7.50;99.90
981;DHT22;479;53.514;9.994;2022-09-28T05:47:14;7.50;99.90
981;DHT22;479;53.514;9.994;2022-09-28T05:49:42;7.40;99.90
981;DHT22;479;53.514;9.994;2022-09-28T05:52:10;7.40;99.90
981;DHT22;479;53.514;9.994;2022-09-28T05:54:38;7.40;99.90
981;DHT22;479;53.514;9.994;2022-09-28T05:57:05;7.40;99.90
981;DHT22;479;53.514;9.994;2022-09-28T05:59:32;7.40;99.90
981;DHT22;479;53.514;9.994;2022-09-28T06:02:01;7.50;99.90
981;DHT22;479;53.514;9.994;2022-09-28T06:04:28;7.50;99.90
981;DHT22;479;53.514;9.994;2022-09-28T06:06:55;7.50;99.90
981;DHT22;479;53.514;9.994;2022-09-28T06:09:22;7.60;99.90
981;DHT22;479;53.514;9.994;2022-09-28T06:12:10;7.70;99.90
981;DHT22;479;53.514;9.994;2022-09-28T06:14:42;7.60;99.90
981;DHT22;479;53.514;9.994;2022-09-28T06:17:12;7.60;99.90
981;DHT22;479;53.514;9.994;2022-09-28T06:19:39;7.50;99.90
981;DHT22;479;53.514;9.994;2022-09-28T06:22:15;7.60;99.90
981;DHT22;479;53.514;9.994;2022-09-28T06:24:49;7.70;99.90
981;DHT22;479;53.514;9.994;2022-09-28T06:27:18;7.70;99.90
981;DHT22;479;53.514;9.994;2022-09-28T06:29:45;7.70;99.90
981;DHT22;479;53.514;9.994;2022-09-28T06:32:11;7.70;99.90
981;DHT22;479;53.514;9.994;2022-09-28T06:34:40;7.80;99.90
981;DHT22;479;53.514;9.994;2022-09-28T06:37:08;7.90;99.90
981;DHT22;479;53.514;9.994;2022-09-28T06:39:35;7.80;99.90
981;DHT22;479;53.514;9.994;2022-09-28T06:42:04;7.80;99.90
981;DHT22;479;53.514;9.994;2022-09-28T06:44:53;7.70;99.90
981;DHT22;479;53.514;9.994;2022-09-28T06:47:41;7.80;99.90
981;DHT22;479;53.514;9.994;2022-09-28T06:50:24;7.80;99.90
981;DHT22;479;53.514;9.994;2022-09-28T06:53:09;7.70;99.90
981;DHT22;479;53.514;9.994;2022-09-28T06:55:54;7.80;99.90
981;DHT22;479;53.514;9.994;2022-09-28T06:58:22;7.80;99.90
981;DHT22;479;53.514;9.994;2022-09-28T07:00:51;7.80;99.90
981;DHT22;479;53.514;9.994;2022-09-28T07:03:20;7.80;99.90
981;DHT22;479;53.514;9.994;2022-09-28T07:05:58;7.70;99.90
981;DHT22;479;53.514;9.994;2022-09-28T07:09:00;7.70;99.90
981;DHT22;479;53.514;9.994;2022-09-28T07:11:39;7.80;99.90
981;DHT22;479;53.514;9.994;2022-09-28T07:14:17;7.80;99.90
981;DHT22;479;53.514;9.994;2022-09-28T07:16:46;7.90;99.90
981;DHT22;479;53.514;9.994;2022-09-28T07:19:13;7.80;99.90
981;DHT22;479;53.514;9.994;2022-09-28T07:21:41;7.80;99.90
981;DHT22;479;53.514;9.994;2022-09-28T07:24:08;7.70;99.90
981;DHT22;479;53.514;9.994;2022-09-28T07:27:02;7.60;99.90
981;DHT22;479;53.514;9.994;2022-09-28T07:29:53;7.50;99.90
981;DHT22;479;53.514;9.994;2022-09-28T07:32:24;7.60;99.90
981;DHT22;479;53.514;9.994;2022-09-28T07:34:59;7.60;99.90
981;DHT22;479;53.514;9.994;2022-09-28T07:37:36;7.50;99.90
981;DHT22;479;53.514;9.994;2022-09-28T07:40:04;7.60;99.90
981;DHT22;479;53.514;9.994;2022-09-28T07:42:49;7.80;99.90
981;DHT22;479;53.514;9.994;2022-09-28T07:45:17;7.90;99.90
981;DHT22;479;53.514;9.994;2022-09-28T07:47:53;8.10;99.90
981;DHT22;479;53.514;9.994;2022-09-28T07:50:56;8.20;99.90
981;DHT22;479;53.514;9.994;2022-09-28T07:53:38;8.00;99.90
981;DHT22;479;53.514;9.994;2022-09-28T07:56:15;8.10;99.90
981;DHT22;479;53.514;9.994;2022-09-28T07:58:54;8.10;99.90
981;DHT22;479;53.514;9.994;2022-09-28T08:01:21;8.00;99.90
981;DHT22;479;53.514;9.994;2022-09-28T08:03:51;8.00;99.90
981;DHT22;479;53.514;9.994;2022-09-28T08:06:21;7.90;99.90
981;DHT22;479;53.514;9.994;2022-09-28T08:08:48;7.80;99.90
981;DHT22;479;53.514;9.994;2022-09-28T08:11:18;7.90;99.90
981;DHT22;479;53.514;9.994;2022-09-28T08:14:04;8.10;99.90
981;DHT22;479;53.514;9.994;2022-09-28T08:16:52;8.30;99.90
981;DHT22;479;53.514;9.994;2022-09-28T08:19:44;8.40;99.90
981;DHT22;479;53.514;9.994;2022-09-28T08:22:28;8.40;99.90
981;DHT22;479;53.514;9.994;2022-09-28T08:24:57;8.40;99.90
981;DHT22;479;53.514;9.994;2022-09-28T08:27:24;8.40;99.90
981;DHT22;479;53.514;9.994;2022-09-28T08:29:51;8.50;99.90
981;DHT22;479;53.514;9.994;2022-09-28T08:32:37;8.50;99.90
981;DHT22;479;53.514;9.994;2022-09-28T08:35:24;8.80;99.90
981;DHT22;479;53.514;9.994;2022-09-28T08:38:10;8.70;99.90
981;DHT22;479;53.514;9.994;2022-09-28T08:41:14;8.90;99.90
981;DHT22;479;53.514;9.994;2022-09-28T08:48:23;8.70;99.90
981;DHT22;479;53.514;9.994;2022-09-28T08:51:22;8.70;99.90
981;DHT22;479;53.514;9.994;2022-09-28T08:54:15;8.80;99.90
981;DHT22;479;53.514;9.994;2022-09-28T08:56:51;8.60;99.90
981;DHT22;479;53.514;9.994;2022-09-28T08:59:21;8.60;99.90
981;DHT22;479;53.514;9.994;2022-09-28T09:01:57;8.50;99.90
981;DHT22;479;53.514;9.994;2022-09-28T09:04:26;8.60;99.90
981;DHT22;479;53.514;9.994;2022-09-28T09:14:25;8.80;99.90
981;DHT22;479;53.514;9.994;2022-09-28T09:17:01;8.80;99.90
981;DHT22;479;53.514;9.994;2022-09-28T09:20:03;9.00;99.90
981;DHT22;479;53.514;9.994;2022-09-28T09:22:57;9.10;99.90
981;DHT22;479;53.514;9.994;2022-09-28T09:25:27;9.30;99.90
981;DHT22;479;53.514;9.994;2022-09-28T09:28:08;9.30;99.90
981;DHT22;479;53.514;9.994;2022-09-28T09:30:44;9.40;99.90
981;DHT22;479;53.514;9.994;2022-09-28T09:36:56;9.80;99.90
981;DHT22;479;53.514;9.994;2022-09-28T09:39:57;10.40;99.90
981;DHT22;479;53.514;9.994;2022-09-28T09:42:54;10.70;99.90
981;DHT22;479;53.514;9.994;2022-09-28T09:45:55;10.80;99.90
981;DHT22;479;53.514;9.994;2022-09-28T09:48:49;10.40;99.90
981;DHT22;479;53.514;9.994;2022-09-28T09:51:23;10.20;99.90
981;DHT22;479;53.514;9.994;2022-09-28T09:53:53;10.10;99.90
981;DHT22;479;53.514;9.994;2022-09-28T09:56:31;10.40;99.90
981;DHT22;479;53.514;9.994;2022-09-28T09:59:09;10.80;99.90
981;DHT22;479;53.514;9.994;2022-09-28T10:01:55;11.80;99.90
981;DHT22;479;53.514;9.994;2022-09-28T10:04:40;12.00;99.90
981;DHT22;479;53.514;9.994;2022-09-28T10:07:21;12.00;99.90
981;DHT22;479;53.514;9.994;2022-09-28T10:09:50;12.70;99.90
981;DHT22;479;53.514;9.994;2022-09-28T10:12:33;13.50;99.90
981;DHT22;479;53.514;9.994;2022-09-28T10:15:02;13.80;99.90
981;DHT22;479;53.514;9.994;2022-09-28T10:17:33;14.50;99.90
981;DHT22;479;53.514;9.994;2022-09-28T10:20:19;15.00;99.90
981;DHT22;479;53.514;9.994;2022-09-28T10:23:00;14.70;99.90
981;DHT22;479;53.514;9.994;2022-09-28T10:25:31;14.10;99.90
981;DHT22;479;53.514;9.994;2022-09-28T10:28:02;13.50;99.90
981;DHT22;479;53.514;9.994;2022-09-28T10:30:35;13.40;99.90
981;DHT22;479;53.514;9.994;2022-09-28T10:33:26;13.60;99.90
981;DHT22;479;53.514;9.994;2022-09-28T10:35:55;13.90;99.90
981;DHT22;479;53.514;9.994;2022-09-28T10:38:23;14.40;99.90
981;DHT22;479;53.514;9.994;2022-09-28T10:40:54;14.50;99.90
981;DHT22;479;53.514;9.994;2022-09-28T10:43:51;14.40;99.90
981;DHT22;479;53.514;9.994;2022-09-28T10:46:31;14.30;99.90
981;DHT22;479;53.514;9.994;2022-09-28T10:49:02;13.80;99.90
981;DHT22;479;53.514;9.994;2022-09-28T10:51:40;13.90;99.90
981;DHT22;479;53.514;9.994;2022-09-28T10:54:14;13.60;99.90
981;DHT22;479;53.514;9.994;2022-09-28T10:56:47;13.10;99.90
981;DHT22;479;53.514;9.994;2022-09-28T10:59:40;13.60;99.90
981;DHT22;479;53.514;9.994;2022-09-28T11:02:40;13.30;99.90
981;DHT22;479;53.514;9.994;2022-09-28T11:05:20;13.30;99.90
981;DHT22;479;53.514;9.994;2022-09-28T11:07:48;14.30;99.90
981;DHT22;479;53.514;9.994;2022-09-28T11:10:26;14.60;99.90
981;DHT22;479;53.514;9.994;2022-09-28T11:12:58;14.70;99.90
981;DHT22;479;53.514;9.994;2022-09-28T11:15:29;14.90;99.90
981;DHT22;479;53.514;9.994;2022-09-28T11:18:17;14.80;99.90
981;DHT22;479;53.514;9.994;2022-09-28T11:20:45;14.80;99.90
981;DHT22;479;53.514;9.994;2022-09-28T11:23:18;14.00;99.90
981;DHT22;479;53.514;9.994;2022-09-28T11:25:58;13.70;99.90
981;DHT22;479;53.514;9.994;2022-09-28T11:28:30;13.70;99.90
981;DHT22;479;53.514;9.994;2022-09-28T11:31:00;13.90;99.90
981;DHT22;479;53.514;9.994;2022-09-28T11:33:36;14.30;99.90
981;DHT22;479;53.514;9.994;2022-09-28T11:36:27;14.10;99.90
981;DHT22;479;53.514;9.994;2022-09-28T11:39:03;13.60;99.90
981;DHT22;479;53.514;9.994;2022-09-28T11:42:06;13.60;99.90
981;DHT22;479;53.514;9.994;2022-09-28T11:44:42;13.90;99.90
981;DHT22;479;53.514;9.994;2022-09-28T11:47:35;13.90;99.90
981;DHT22;479;53.514;9.994;2022-09-28T11:50:12;13.80;99.90
981;DHT22;479;53.514;9.994;2022-09-28T11:52:48;13.90;99.90
981;DHT22;479;53.514;9.994;2022-09-28T11:55:23;14.00;99.90
981;DHT22;479;53.514;9.994;2022-09-28T11:57:59;13.90;99.90
981;DHT22;479;53.514;9.994;2022-09-28T12:00:28;13.70;99.90
981;DHT22;479;53.514;9.994;2022-09-28T12:03:07;13.70;99.90
981;DHT22;479;53.514;9.994;2022-09-28T12:05:41;14.00;99.90
981;DHT22;479;53.514;9.994;2022-09-28T12:08:14;13.90;99.90
981;DHT22;479;53.514;9.994;2022-09-28T12:11:09;14.10;99.90
981;DHT22;479;53.514;9.994;2022-09-28T12:13:58;14.30;99.90
981;DHT22;479;53.514;9.994;2022-09-28T12:16:30;14.30;99.90
981;DHT22;479;53.514;9.994;2022-09-28T12:19:02;14.30;99.90
981;DHT22;479;53.514;9.994;2022-09-28T12:21:36;14.20;99.90
981;DHT22;479;53.514;9.994;2022-09-28T12:24:11;13.90;99.90
981;DHT22;479;53.514;9.994;2022-09-28T12:26:45;13.80;99.90
981;DHT22;479;53.514;9.994;2022-09-28T12:29:14;13.80;99.90
981;DHT22;479;53.514;9.994;2022-09-28T12:31:51;13.90;99.90
981;DHT22;479;53.514;9.994;2022-09-28T12:34:21;13.90;99.90
981;DHT22;479;53.514;9.994;2022-09-28T12:37:07;13.90;99.90
981;DHT22;479;53.514;9.994;2022-09-28T12:39:45;13.80;99.90
981;DHT22;479;53.514;9.994;2022-09-28T12:42:24;13.70;99.90
981;DHT22;479;53.514;9.994;2022-09-28T12:50:59;13.70;99.90
981;DHT22;479;53.514;9.994;2022-09-28T12:53:49;13.40;99.90
981;DHT22;479;53.514;9.994;2022-09-28T12:56:24;13.50;99.90
981;DHT22;479;53.514;9.994;2022-09-28T12:59:02;13.60;99.90
981;DHT22;479;53.514;9.994;2022-09-28T13:01:44;14.00;99.90
981;DHT22;479;53.514;9.994;2022-09-28T13:04:43;14.00;99.90
981;DHT22;479;53.514;9.994;2022-09-28T13:07:20;13.90;99.90
981;DHT22;479;53.514;9.994;2022-09-28T13:09:58;13.90;99.90
981;DHT22;479;53.514;9.994;2022-09-28T13:12:38;13.80;99.90
981;DHT22;479;53.514;9.994;2022-09-28T13:15:21;13.90;99.90
981;DHT22;479;53.514;9.994;2022-09-28T13:18:00;13.80;99.90
981;DHT22;479;53.514;9.994;2022-09-28T13:20:38;13.80;99.90
981;DHT22;479;53.514;9.994;2022-09-28T13:23:13;13.90;99.90
981;DHT22;479;53.514;9.994;2022-09-28T13:25:45;14.00;99.90
981;DHT22;479;53.514;9.994;2022-09-28T13:28:15;14.10;99.90
981;DHT22;479;53.514;9.994;2022-09-28T13:30:44;14.30;99.90
981;DHT22;479;53.514;9.994;2022-09-28T13:33:17;14.50;99.90
981;DHT22;479;53.514;9.994;2022-09-28T13:35:46;14.30;99.90
981;DHT22;479;53.514;9.994;2022-09-28T13:38:44;14.30;99.90
981;DHT22;479;53.514;9.994;2022-09-28T13:41:27;14.30;99.90
981;DHT22;479;53.514;9.994;2022-09-28T13:44:19;14.30;99.90
981;DHT22;479;53.514;9.994;2022-09-28T13:47:04;14.10;99.90
981;DHT22;479;53.514;9.994;2022-09-28T13:49:45;13.90;99.90
981;DHT22;479;53.514;9.994;2022-09-28T13:52:29;13.80;99.90
981;DHT22;479;53.514;9.994;2022-09-28T13:55:21;13.90;99.90
981;DHT22;479;53.514;9.994;2022-09-28T13:57:54;13.90;99.90
981;DHT22;479;53.514;9.994;2022-09-28T14:00:27;13.80;99.90
981;DHT22;479;53.514;9.994;2022-09-28T14:02:58;13.90;99.90
981;DHT22;479;53.514;9.994;2022-09-28T14:05:51;13.80;99.90
981;DHT22;479;53.514;9.994;2022-09-28T14:08:37;13.70;99.90
981;DHT22;479;53.514;9.994;2022-09-28T14:11:40;13.80;99.90
981;DHT22;479;53.514;9.994;2022-09-28T14:14:44;13.70;99.90
981;DHT22;479;53.514;9.994;2022-09-28T14:17:50;13.60;99.90
981;DHT22;479;53.514;9.994;2022-09-28T14:20:21;13.50;99.90
981;DHT22;479;53.514;9.994;2022-09-28T14:23:08;13.50;99.90
981;DHT22;479;53.514;9.994;2022-09-28T14:25:42;13.40;99.90
981;DHT22;479;53.514;9.994;2022-09-28T14:28:26;13.40;99.90
981;DHT22;479;53.514;9.994;2022-09-28T14:31:06;13.40;99.90
981;DHT22;479;53.514;9.994;2022-09-28T14:33:36;13.30;99.90
981;DHT22;479;53.514;9.994;2022-09-28T14:36:06;13.30;99.90
981;DHT22;479;53.514;9.994;2022-09-28T14:38:36;13.30;99.90
981;DHT22;479;53.514;9.994;2022-09-28T14:41:27;13.20;99.90
981;DHT22;479;53.514;9.994;2022-09-28T14:44:02;13.20;99.90
981;DHT22;479;53.514;9.994;2022-09-28T14:46:33;13.10;99.90
981;DHT22;479;53.514;9.994;2022-09-28T14:49:03;13.20;99.90
981;DHT22;479;53.514;9.994;2022-09-28T14:51:56;13.20;99.90
981;DHT22;479;53.514;9.994;2022-09-28T14:54:26;13.20;99.90
981;DHT22;479;53.514;9.994;2022-09-28T14:57:04;13.30;99.90
981;DHT22;479;53.514;9.994;2022-09-28T14:59:40;13.30;99.90
981;DHT22;479;53.514;9.994;2022-09-28T15:02:17;13.30;99.90
981;DHT22;479;53.514;9.994;2022-09-28T15:04:48;13.30;99.90
981;DHT22;479;53.514;9.994;2022-09-28T15:07:20;13.30;99.90
981;DHT22;479;53.514;9.994;2022-09-28T15:09:48;13.40;99.90
981;DHT22;479;53.514;9.994;2022-09-28T15:12:17;13.60;99.90
981;DHT22;479;53.514;9.994;2022-09-28T15:14:49;13.60;99.90
981;DHT22;479;53.514;9.994;2022-09-28T15:17:20;13.50;99.90
981;DHT22;479;53.514;9.994;2022-09-28T15:19:58;13.40;99.90
981;DHT22;479;53.514;9.994;2022-09-28T15:22:27;13.30;99.90
981;DHT22;479;53.514;9.994;2022-09-28T15:24:56;13.30;99.90
981;DHT22;479;53.514;9.994;2022-09-28T15:27:24;13.30;99.90
981;DHT22;479;53.514;9.994;2022-09-28T15:29:57;13.20;99.90
981;DHT22;479;53.514;9.994;2022-09-28T15:32:24;13.20;99.90
981;DHT22;479;53.514;9.994;2022-09-28T15:34:51;13.20;99.90
981;DHT22;479;53.514;9.994;2022-09-28T15:37:22;13.20;99.90
981;DHT22;479;53.514;9.994;2022-09-28T15:39:50;13.10;99.90
981;DHT22;479;53.514;9.994;2022-09-28T15:42:18;13.10;99.90
981;DHT22;479;53.514;9.994;2022-09-28T15:45:02;13.00;99.90
981;DHT22;479;53.514;9.994;2022-09-28T15:47:32;12.90;99.90
981;DHT22;479;53.514;9.994;2022-09-28T15:50:06;12.90;99.90
981;DHT22;479;53.514;9.994;2022-09-28T15:52:36;13.00;99.90
981;DHT22;479;53.514;9.994;2022-09-28T15:55:17;13.00;99.90
981;DHT22;479;53.514;9.994;2022-09-28T15:57:45;13.00;99.90
981;DHT22;479;53.514;9.994;2022-09-28T16:00:25;12.90;99.90
981;DHT22;479;53.514;9.994;2022-09-28T16:02:58;13.00;99.90
981;DHT22;479;53.514;9.994;2022-09-28T16:05:31;12.90;99.90
981;DHT22;479;53.514;9.994;2022-09-28T16:08:02;12.90;99.90
981;DHT22;479;53.514;9.994;2022-09-28T16:10:31;12.80;99.90
981;DHT22;479;53.514;9.994;2022-09-28T16:13:15;12.70;99.90
981;DHT22;479;53.514;9.994;2022-09-28T16:15:52;12.60;99.90
981;DHT22;479;53.514;9.994;2022-09-28T16:18:23;12.50;99.90
981;DHT22;479;53.514;9.994;2022-09-28T16:20:52;12.40;99.90
981;DHT22;479;53.514;9.994;2022-09-28T16:23:23;12.30;99.90
981;DHT22;479;53.514;9.994;2022-09-28T16:25:52;12.30;99.90
981;DHT22;479;53.514;9.994;2022-09-28T16:28:47;12.20;99.90
981;DHT22;479;53.514;9.994;2022-09-28T16:31:26;12.10;99.90
981;DHT22;479;53.514;9.994;2022-09-28T16:33:55;12.10;99.90
981;DHT22;479;53.514;9.994;2022-09-28T16:36:25;12.10;99.90
981;DHT22;479;53.514;9.994;2022-09-28T16:38:54;12.10;99.90
981;DHT22;479;53.514;9.994;2022-09-28T16:41:24;12.00;99.90
981;DHT22;479;53.514;9.994;2022-09-28T16:43:55;12.00;99.90
981;DHT22;479;53.514;9.994;2022-09-28T16:46:29;11.90;99.90
981;DHT22;479;53.514;9.994;2022-09-28T16:48:57;11.80;99.90
981;DHT22;479;53.514;9.994;2022-09-28T16:51:29;11.80;99.90
981;DHT22;479;53.514;9.994;2022-09-28T16:53:59;11.70;99.90
981;DHT22;479;53.514;9.994;2022-09-28T16:56:43;11.70;99.90
981;DHT22;479;53.514;9.994;2022-09-28T16:59:10;11.60;99.90
981;DHT22;479;53.514;9.994;2022-09-28T17:01:38;11.60;99.90
981;DHT22;479;53.514;9.994;2022-09-28T17:04:08;11.60;99.90
981;DHT22;479;53.514;9.994;2022-09-28T17:06:35;11.60;99.90
981;DHT22;479;53.514;9.994;2022-09-28T17:09:03;11.50;99.90
981;DHT22;479;53.514;9.994;2022-09-28T17:11:32;11.50;99.90
981;DHT22;479;53.514;9.994;2022-09-28T17:13:59;11.50;99.90
981;DHT22;479;53.514;9.994;2022-09-28T17:16:29;11.40;99.90
981;DHT22;479;53.514;9.994;2022-09-28T17:18:59;11.40;99.90
981;DHT22;479;53.514;9.994;2022-09-28T17:21:26;11.40;99.90
981;DHT22;479;53.514;9.994;2022-09-28T17:23:53;11.30;99.90
981;DHT22;479;53.514;9.994;2022-09-28T17:26:24;11.20;99.90
981;DHT22;479;53.514;9.994;2022-09-28T17:28:55;11.10;99.90
981;DHT22;479;53.514;9.994;2022-09-28T17:31:22;11.00;99.90
981;DHT22;479;53.514;9.994;2022-09-28T17:33:50;11.00;99.90
981;DHT22;479;53.514;9.994;2022-09-28T17:36:20;10.90;99.90
981;DHT22;479;53.514;9.994;2022-09-28T17:38:47;10.90;99.90
981;DHT22;479;53.514;9.994;2022-09-28T17:41:18;10.80;99.90
981;DHT22;479;53.514;9.994;2022-09-28T17:43:48;10.80;99.90
981;DHT22;479;53.514;9.994;2022-09-28T17:46:23;10.70;99.90
981;DHT22;479;53.514;9.994;2022-09-28T17:48:51;10.70;99.90
981;DHT22;479;53.514;9.994;2022-09-28T17:51:19;10.70;99.90
981;DHT22;479;53.514;9.994;2022-09-28T17:53:47;10.80;99.90
981;DHT22;479;53.514;9.994;2022-09-28T17:56:13;10.80;99.90
981;DHT22;479;53.514;9.994;2022-09-28T17:58:41;10.70;99.90
981;DHT22;479;53.514;9.994;2022-09-28T18:01:08;10.70;99.90